createdAt,value
2023-04-10T00:08:28.949Z,99475.40
2023-04-10T00:18:54.742Z,99468.52
2023-04-10T00:29:20.480Z,99462.73
2023-04-10T00:39:46.756Z,99455.15
2023-04-10T00:50:13.967Z,99451.13
2023-04-10T01:00:39.735Z,99455.35
2023-04-10T01:11:14.272Z,99451.42
2023-04-10T01:21:42.009Z,99442.80
2023-04-10T01:32:14.203Z,99444.00
2023-04-10T01:42:45.077Z,99440.54
2023-04-10T01:53:11.368Z,99449.84
2023-04-10T02:03:37.360Z,99465.53
2023-04-10T02:14:09.675Z,99466.02
2023-04-10T02:24:36.501Z,99463.21
2023-04-10T02:35:03.228Z,99458.43
2023-04-10T02:45:28.815Z,99451.55
2023-04-10T02:55:55.787Z,99453.30
2023-04-10T03:06:22.254Z,99450.26
2023-04-10T03:16:48.863Z,99457.73
2023-04-10T03:27:14.647Z,99461.02
2023-04-10T03:37:42.347Z,99458.44
2023-04-10T03:48:08.606Z,99455.64
2023-04-10T03:58:34.193Z,99451.79
2023-04-10T04:09:08.381Z,99462.05
2023-04-10T04:19:34.262Z,99461.48
2023-04-10T04:30:01.077Z,99465.13
2023-04-10T04:40:26.970Z,99472.69
2023-04-10T04:50:53.050Z,99476.87
2023-04-10T05:01:18.916Z,99477.04
2023-04-10T05:11:45.128Z,99484.00
2023-04-10T05:22:10.826Z,99492.23
2023-04-10T05:32:36.639Z,99495.23
2023-04-10T05:43:02.692Z,99498.97
2023-04-10T05:53:32.466Z,99504.74
2023-04-10T06:03:58.483Z,99508.73
2023-04-10T06:14:25.920Z,99514.41
2023-04-10T06:24:52.201Z,99521.45
2023-04-10T06:35:18.382Z,99514.72
2023-04-10T06:45:44.260Z,99510.27
2023-04-10T06:56:11.370Z,99526.58
2023-04-10T07:06:37.657Z,99529.40
2023-04-10T07:17:04.738Z,99527.88
2023-04-10T07:27:30.830Z,99534.39
2023-04-10T07:37:56.798Z,99530.48
2023-04-10T07:48:22.813Z,99523.34
2023-04-10T07:58:49.393Z,99517.96
2023-04-10T08:09:15.015Z,99515.17
2023-04-10T08:19:41.539Z,99518.42
2023-04-10T08:30:09.045Z,99517.67
2023-04-10T08:40:37.939Z,99516.96
2023-04-10T08:51:10.767Z,99519.84
2023-04-10T09:01:42.968Z,99518.09
2023-04-10T09:12:08.736Z,99518.80
2023-04-10T09:22:36.990Z,99513.11
2023-04-10T09:33:03.722Z,99511.50
2023-04-10T09:43:30.467Z,99503.24
2023-04-10T09:53:56.591Z,99500.68
2023-04-10T10:04:23.189Z,99491.19
2023-04-10T10:14:55.132Z,99490.68
2023-04-10T10:25:21.507Z,99483.27
2023-04-10T10:35:48.210Z,99477.14
2023-04-10T10:46:18.817Z,99461.96
2023-04-10T10:56:45.073Z,99454.39
2023-04-10T11:07:11.362Z,99448.86
2023-04-10T11:17:54.726Z,99436.55
2023-04-10T11:28:42.483Z,99426.46
2023-04-10T11:39:10.387Z,99415.16
2023-04-10T11:49:37.162Z,99403.34
2023-04-10T12:00:03.305Z,99389.77
2023-04-10T12:10:29.731Z,99374.27
2023-04-10T12:20:57.666Z,99355.95
2023-04-10T12:31:29.784Z,99338.13
2023-04-10T12:41:55.509Z,99330.70
2023-04-10T12:52:26.507Z,99317.91
2023-04-10T13:02:52.864Z,99303.48
2023-04-10T13:13:19.938Z,99288.70
2023-04-10T13:23:47.502Z,99266.59
2023-04-10T13:34:13.585Z,99255.57
2023-04-10T13:44:39.606Z,99233.23
2023-04-10T13:55:06.596Z,99223.02
2023-04-10T14:05:32.416Z,99207.57
2023-04-10T14:15:58.165Z,99190.84
2023-04-10T14:26:24.706Z,99178.15
2023-04-10T14:36:55.676Z,99158.71
2023-04-10T14:47:21.488Z,99156.19
2023-04-10T14:57:47.418Z,99146.84
2023-04-10T15:08:13.392Z,99133.33
2023-04-10T15:18:39.433Z,99124.11
2023-04-10T15:29:05.642Z,99118.55
2023-04-10T15:39:31.887Z,99117.27
2023-04-10T15:49:59.171Z,99116.46
2023-04-10T16:00:25.958Z,99114.38
2023-04-10T16:10:51.691Z,99101.17
2023-04-10T16:21:17.972Z,99098.44
2023-04-10T16:31:43.719Z,99079.02
2023-04-10T16:42:09.926Z,99084.92
2023-04-10T16:52:37.359Z,99097.61
2023-04-10T17:03:03.861Z,99131.00
2023-04-10T17:13:31.094Z,99136.71
2023-04-10T17:23:56.650Z,99122.50
2023-04-10T17:34:22.767Z,99110.91
2023-04-10T17:44:48.731Z,99103.55
2023-04-10T17:55:18.432Z,99107.58
2023-04-10T18:05:46.862Z,99101.48
2023-04-10T18:16:13.066Z,99107.23
2023-04-10T18:26:39.302Z,99102.82
2023-04-10T18:37:06.800Z,99099.09
2023-04-10T18:47:35.312Z,99095.27
2023-04-10T18:58:01.740Z,99092.90
2023-04-10T19:08:27.974Z,99086.30
2023-04-10T19:18:56.921Z,99082.18
2023-04-10T19:29:22.742Z,99082.56
2023-04-10T19:39:48.458Z,99080.48
2023-04-10T19:50:15.300Z,99083.11
2023-04-10T20:00:41.252Z,99090.77
2023-04-10T20:11:08.056Z,99093.37
2023-04-10T20:21:34.678Z,99075.84
2023-04-10T20:32:00.929Z,99045.23
2023-04-10T20:42:26.682Z,99033.73
2023-04-10T20:52:52.413Z,99021.92
2023-04-10T21:03:18.558Z,99016.75
2023-04-10T21:13:44.682Z,99018.81
2023-04-10T21:24:11.969Z,98998.15
2023-04-10T21:34:38.046Z,98992.42
2023-04-10T21:45:04.682Z,98985.34
2023-04-10T21:55:30.614Z,98975.46
2023-04-10T22:05:56.583Z,98963.86
2023-04-10T22:16:22.876Z,98949.64
2023-04-10T22:26:48.724Z,98933.52
2023-04-10T22:37:14.630Z,98916.49
2023-04-10T22:47:40.535Z,98895.72
2023-04-10T22:58:06.028Z,98886.52
2023-04-10T23:08:32.168Z,98879.58
2023-04-10T23:18:58.131Z,98862.08
2023-04-10T23:29:24.250Z,98858.42
2023-04-10T23:39:50.200Z,98846.21
2023-04-10T23:50:16.033Z,98824.19
